createdAt,value
2018-08-18T00:01:40.609Z,80.20
2018-08-18T00:04:35.485Z,80.70
2018-08-18T00:07:04.116Z,80.50
2018-08-18T00:09:32.541Z,80.50
2018-08-18T00:12:00.903Z,80.70
2018-08-18T00:14:29.516Z,80.10
2018-08-18T00:16:57.891Z,79.80
2018-08-18T00:19:26.844Z,79.80
2018-08-18T00:21:55.193Z,80.20
2018-08-18T00:24:23.584Z,80.60
2018-08-18T00:26:51.961Z,81.50
2018-08-18T00:29:20.363Z,80.70
2018-08-18T00:31:48.729Z,80.70
2018-08-18T00:34:17.141Z,80.70
2018-08-18T00:36:45.510Z,81.10
2018-08-18T00:39:13.929Z,81.40
2018-08-18T00:41:42.293Z,81.60
2018-08-18T00:44:11.413Z,81.40
2018-08-18T00:46:39.792Z,81.40
2018-08-18T00:49:08.224Z,80.90
2018-08-18T00:51:42.037Z,80.60
2018-08-18T00:54:10.426Z,81.00
2018-08-18T00:56:40.744Z,80.50
2018-08-18T00:59:09.205Z,80.70
2018-08-18T01:01:37.582Z,80.70
2018-08-18T01:04:09.789Z,81.10
2018-08-18T01:06:39.492Z,80.90
2018-08-18T01:09:09.794Z,81.80
2018-08-18T01:11:38.366Z,82.50
2018-08-18T01:14:13.494Z,82.30
2018-08-18T01:16:47.263Z,82.20
2018-08-18T01:19:15.629Z,82.00
2018-08-18T01:21:51.257Z,81.70
2018-08-18T01:24:20.402Z,82.50
2018-08-18T01:26:49.300Z,82.60
2018-08-18T01:29:18.344Z,82.40
2018-08-18T01:31:47.308Z,81.90
2018-08-18T01:34:15.767Z,82.30
2018-08-18T01:36:44.157Z,82.60
2018-08-18T01:39:13.734Z,82.30
2018-08-18T01:41:42.204Z,82.30
2018-08-18T01:44:15.076Z,82.50
2018-08-18T01:46:45.414Z,82.30
2018-08-18T01:49:25.877Z,82.20
2018-08-18T01:51:54.270Z,82.30
2018-08-18T01:54:22.627Z,82.20
2018-08-18T01:56:54.252Z,82.10
2018-08-18T01:59:23.397Z,82.30
2018-08-18T02:01:51.772Z,83.00
2018-08-18T02:04:20.129Z,83.20
2018-08-18T02:06:48.525Z,83.40
2018-08-18T02:09:16.875Z,82.50
2018-08-18T02:11:46.351Z,82.50
2018-08-18T02:14:19.955Z,82.40
2018-08-18T02:16:49.127Z,82.50
2018-08-18T02:19:17.897Z,82.90
2018-08-18T02:21:46.268Z,83.10
2018-08-18T02:24:14.815Z,82.70
2018-08-18T02:26:43.216Z,83.30
2018-08-18T02:29:11.568Z,82.50
2018-08-18T02:31:39.948Z,82.50
2018-08-18T02:34:08.325Z,82.50
2018-08-18T02:36:36.740Z,82.50
2018-08-18T02:39:07.058Z,82.70
2018-08-18T02:41:35.853Z,83.10
2018-08-18T02:44:04.227Z,83.00
2018-08-18T02:46:34.716Z,83.10
2018-08-18T02:49:03.885Z,83.10
2018-08-18T02:51:32.815Z,82.90
2018-08-18T02:54:01.470Z,83.10
2018-08-18T02:56:35.293Z,83.30
2018-08-18T02:59:04.993Z,83.30
2018-08-18T03:01:43.088Z,83.20
2018-08-18T03:04:12.705Z,83.20
2018-08-18T03:06:41.313Z,82.60
2018-08-18T03:09:10.999Z,83.20
2018-08-18T03:11:41.770Z,83.50
2018-08-18T03:14:10.320Z,83.80
2018-08-18T03:16:42.755Z,84.00
2018-08-18T03:19:13.872Z,84.10
2018-08-18T03:21:44.332Z,84.60
2018-08-18T03:24:15.540Z,84.50
2018-08-18T03:26:45.132Z,84.10
2018-08-18T03:29:14.431Z,84.30
2018-08-18T03:31:43.219Z,84.20
2018-08-18T03:34:12.099Z,84.40
2018-08-18T03:36:42.237Z,84.40
2018-08-18T03:39:26.411Z,84.40
2018-08-18T03:41:58.876Z,84.60
2018-08-18T03:44:27.209Z,85.00
2018-08-18T03:46:55.619Z,85.10
2018-08-18T03:49:24.094Z,85.20
2018-08-18T03:51:54.310Z,85.00
2018-08-18T03:54:22.645Z,84.80
2018-08-18T03:56:51.388Z,85.20
2018-08-18T03:59:19.723Z,85.30
2018-08-18T04:01:58.360Z,85.20
2018-08-18T04:04:27.876Z,85.40
2018-08-18T04:06:57.433Z,86.00
2018-08-18T04:09:27.950Z,84.70
2018-08-18T04:11:57.444Z,84.50
2018-08-18T04:14:43.518Z,85.30
2018-08-18T04:17:24.183Z,85.00
2018-08-18T04:19:52.511Z,85.80
2018-08-18T04:22:22.225Z,86.40
2018-08-18T04:24:50.608Z,86.00
2018-08-18T04:27:36.572Z,86.50
2018-08-18T04:30:07.308Z,87.10
2018-08-18T04:32:49.012Z,86.80
2018-08-18T04:35:18.391Z,86.80
2018-08-18T04:37:46.720Z,86.90
2018-08-18T04:40:15.104Z,87.60
2018-08-18T04:42:43.478Z,88.70
2018-08-18T04:45:12.797Z,88.60
2018-08-18T04:47:41.143Z,88.10
2018-08-18T04:50:09.640Z,87.70
2018-08-18T04:52:38.030Z,87.30
2018-08-18T04:55:06.413Z,87.20
2018-08-18T04:57:35.024Z,87.10
2018-08-18T05:00:03.460Z,87.20
2018-08-18T05:02:31.821Z,86.80
2018-08-18T05:05:00.196Z,86.60
2018-08-18T05:07:32.856Z,86.50
2018-08-18T05:10:01.236Z,86.50
2018-08-18T05:12:29.635Z,86.70
2018-08-18T05:14:58.012Z,86.70
2018-08-18T05:17:26.364Z,86.50
2018-08-18T05:20:05.310Z,86.40
2018-08-18T05:22:34.075Z,86.40
2018-08-18T05:25:02.480Z,86.50
2018-08-18T05:27:30.960Z,86.70
2018-08-18T05:29:59.343Z,87.10
2018-08-18T05:32:27.741Z,87.20
2018-08-18T05:34:56.119Z,87.90
2018-08-18T05:37:24.466Z,88.10
2018-08-18T05:39:52.950Z,88.30
2018-08-18T05:42:21.316Z,88.10
2018-08-18T05:44:49.819Z,88.20
2018-08-18T05:47:18.185Z,88.00
2018-08-18T05:49:46.571Z,87.60
2018-08-18T05:52:14.984Z,87.90
2018-08-18T05:54:43.327Z,88.20
2018-08-18T05:57:12.063Z,88.30
2018-08-18T05:59:40.565Z,88.30
2018-08-18T06:02:08.996Z,88.40
2018-08-18T06:04:37.341Z,87.90
2018-08-18T06:07:05.730Z,87.90
2018-08-18T06:09:34.068Z,87.70
2018-08-18T06:12:07.765Z,87.40
2018-08-18T06:14:41.517Z,87.80
2018-08-18T06:17:12.187Z,87.80
2018-08-18T06:19:40.559Z,87.70
2018-08-18T06:22:08.996Z,87.40
2018-08-18T06:24:37.411Z,87.30
2018-08-18T06:27:05.768Z,86.90
2018-08-18T06:29:34.196Z,86.90
2018-08-18T06:32:02.915Z,86.90
2018-08-18T06:34:32.935Z,86.30
2018-08-18T06:37:01.712Z,86.00
2018-08-18T06:40:02.323Z,86.10
2018-08-18T06:42:36.892Z,86.40
2018-08-18T06:45:12.307Z,85.60
2018-08-18T06:47:40.979Z,85.00
2018-08-18T06:50:12.510Z,84.50
2018-08-18T06:52:41.134Z,83.60
2018-08-18T06:55:14.207Z,83.30
2018-08-18T06:57:49.588Z,82.90
2018-08-18T07:00:23.115Z,82.20
2018-08-18T07:02:51.528Z,81.60
2018-08-18T07:05:20.488Z,81.60
2018-08-18T07:07:49.702Z,81.00
2018-08-18T07:10:37.483Z,81.30
2018-08-18T07:13:07.461Z,80.00
2018-08-18T07:15:37.157Z,79.50
2018-08-18T07:18:07.250Z,79.00
2018-08-18T07:20:35.729Z,78.60
2018-08-18T07:23:04.296Z,78.40
2018-08-18T07:25:32.712Z,78.30
2018-08-18T07:28:06.478Z,78.10
2018-08-18T07:30:36.132Z,77.30
2018-08-18T07:33:04.616Z,76.00
2018-08-18T07:35:33.000Z,76.40
2018-08-18T07:38:01.485Z,75.20
2018-08-18T07:40:38.217Z,75.00
2018-08-18T07:43:07.879Z,74.70
2018-08-18T07:45:36.964Z,74.20
2018-08-18T07:48:06.665Z,74.00
2018-08-18T07:50:34.952Z,73.90
2018-08-18T07:53:03.806Z,73.50
2018-08-18T07:55:32.415Z,72.70
2018-08-18T07:58:08.101Z,72.40
2018-08-18T08:00:37.584Z,71.90
2018-08-18T08:03:07.144Z,71.70
2018-08-18T08:05:35.517Z,71.00
2018-08-18T08:08:03.911Z,70.80
2018-08-18T08:10:32.268Z,70.90
2018-08-18T08:13:00.783Z,70.00
2018-08-18T08:15:29.091Z,69.70
2018-08-18T08:17:57.456Z,69.50
2018-08-18T08:20:25.839Z,69.30
2018-08-18T08:22:54.842Z,68.90
2018-08-18T08:25:23.284Z,68.60
2018-08-18T08:27:52.667Z,68.40
2018-08-18T08:30:22.424Z,67.70
2018-08-18T08:32:50.822Z,67.20
2018-08-18T08:35:19.267Z,66.80
2018-08-18T08:37:48.525Z,66.30
2018-08-18T08:40:18.399Z,65.40
2018-08-18T08:42:48.892Z,65.20
2018-08-18T08:45:20.788Z,64.70
2018-08-18T08:47:50.772Z,63.40
2018-08-18T08:50:21.274Z,63.80
2018-08-18T08:52:50.956Z,63.20
2018-08-18T08:55:20.599Z,62.80
2018-08-18T08:57:48.997Z,61.80
2018-08-18T09:00:17.376Z,61.40
2018-08-18T09:02:45.723Z,59.70
2018-08-18T09:05:14.113Z,59.70
2018-08-18T09:07:42.868Z,59.50
2018-08-18T09:10:12.750Z,59.50
2018-08-18T09:12:41.074Z,56.90
2018-08-18T09:15:10.943Z,57.60
2018-08-18T09:17:39.328Z,57.50
2018-08-18T09:20:11.037Z,55.90
2018-08-18T09:22:54.420Z,56.20
2018-08-18T09:25:22.826Z,56.40
2018-08-18T09:27:56.499Z,56.10
2018-08-18T09:30:26.492Z,55.60
2018-08-18T09:32:55.152Z,55.30
2018-08-18T09:35:23.500Z,55.10
2018-08-18T09:37:58.360Z,55.40
2018-08-18T09:40:27.843Z,55.10
2018-08-18T09:42:56.217Z,54.80
2018-08-18T09:45:24.717Z,54.50
2018-08-18T09:47:53.017Z,54.10
2018-08-18T09:50:21.379Z,54.10
2018-08-18T09:52:49.744Z,53.40
2018-08-18T09:55:18.298Z,53.30
2018-08-18T09:57:46.783Z,53.30
2018-08-18T10:00:15.574Z,52.50
2018-08-18T10:02:44.243Z,52.00
2018-08-18T10:05:12.592Z,51.80
2018-08-18T10:07:41.188Z,51.50
2018-08-18T10:10:11.336Z,51.10
2018-08-18T10:12:39.799Z,50.80
2018-08-18T10:15:08.153Z,50.60
2018-08-18T10:17:36.668Z,50.10
2018-08-18T10:20:06.118Z,50.00
2018-08-18T10:22:34.496Z,49.80
2018-08-18T10:25:03.316Z,50.10
2018-08-18T10:27:32.184Z,49.80
2018-08-18T10:30:00.525Z,49.00
2018-08-18T10:32:28.901Z,48.70
2018-08-18T10:34:57.540Z,48.20
2018-08-18T10:37:25.903Z,47.80
2018-08-18T10:39:59.748Z,46.90
2018-08-18T10:42:28.177Z,47.10
2018-08-18T10:45:01.201Z,46.80
2018-08-18T10:47:29.795Z,46.40
2018-08-18T10:50:09.767Z,46.60
2018-08-18T10:52:49.624Z,46.90
2018-08-18T10:55:18.796Z,45.80
2018-08-18T10:57:57.906Z,45.80
2018-08-18T11:00:27.712Z,45.60
2018-08-18T11:02:57.291Z,45.10
2018-08-18T11:05:26.544Z,45.00
2018-08-18T11:08:00.911Z,44.60
2018-08-18T11:10:30.926Z,45.10
2018-08-18T11:12:59.289Z,44.20
2018-08-18T11:15:27.656Z,44.10
2018-08-18T11:17:56.579Z,43.50
2018-08-18T11:20:28.976Z,43.50
2018-08-18T11:23:19.160Z,43.60
2018-08-18T11:25:52.429Z,43.50
2018-08-18T11:28:21.930Z,43.30
2018-08-18T11:30:53.143Z,42.80
2018-08-18T11:33:37.575Z,42.80
2018-08-18T11:36:07.979Z,42.10
2018-08-18T11:38:36.335Z,41.90
2018-08-18T11:41:04.724Z,41.80
2018-08-18T11:43:39.855Z,41.60
2018-08-18T11:46:08.216Z,41.00
2018-08-18T11:48:36.587Z,41.10
2018-08-18T11:51:04.919Z,40.80
2018-08-18T11:53:33.314Z,40.00
2018-08-18T11:56:01.659Z,39.90
2018-08-18T11:58:29.988Z,39.80
2018-08-18T12:00:59.476Z,39.60
2018-08-18T12:03:34.698Z,39.80
2018-08-18T12:06:05.108Z,39.10
2018-08-18T12:08:34.784Z,39.00
2018-08-18T12:11:04.708Z,39.20
2018-08-18T12:13:38.256Z,39.70
2018-08-18T12:16:12.508Z,39.50
2018-08-18T12:18:42.250Z,39.20
2018-08-18T12:21:10.794Z,39.00
2018-08-18T12:23:48.106Z,38.70
2018-08-18T12:26:17.636Z,38.20
2018-08-18T12:28:48.100Z,38.10
2018-08-18T12:31:19.929Z,38.10
2018-08-18T12:33:48.319Z,38.00
2018-08-18T12:36:16.783Z,38.00
2018-08-18T12:38:46.679Z,38.00
2018-08-18T12:41:15.112Z,38.10
2018-08-18T12:43:47.839Z,38.00
2018-08-18T12:46:17.479Z,37.70
2018-08-18T12:48:46.963Z,38.20
2018-08-18T12:51:16.500Z,36.90
2018-08-18T12:53:47.064Z,36.90
2018-08-18T12:56:17.154Z,36.90
2018-08-18T12:58:45.591Z,37.10
2018-08-18T13:01:18.432Z,36.50
2018-08-18T13:03:46.768Z,36.60
2018-08-18T13:06:15.267Z,36.70
2018-08-18T13:08:43.643Z,36.40
2018-08-18T13:11:12.008Z,36.10
2018-08-18T13:13:40.347Z,35.60
2018-08-18T13:16:08.796Z,35.80
2018-08-18T13:18:37.225Z,35.40
2018-08-18T13:21:05.720Z,35.20
2018-08-18T13:23:34.078Z,35.00
2018-08-18T13:26:02.504Z,35.40
2018-08-18T13:28:30.883Z,34.80
2018-08-18T13:30:59.244Z,34.90
2018-08-18T13:33:30.916Z,34.50
2018-08-18T13:35:59.277Z,34.30
2018-08-18T13:38:30.558Z,34.10
2018-08-18T13:40:58.947Z,34.00
2018-08-18T13:43:39.268Z,34.00
2018-08-18T13:46:09.057Z,33.80
2018-08-18T13:48:37.408Z,34.10
2018-08-18T13:51:05.884Z,34.00
2018-08-18T13:53:43.526Z,33.90
2018-08-18T13:56:11.904Z,33.70
2018-08-18T13:58:40.255Z,33.50
2018-08-18T14:01:23.981Z,32.90
2018-08-18T14:03:52.620Z,33.20
2018-08-18T14:06:21.048Z,33.00
2018-08-18T14:08:53.695Z,32.70
2018-08-18T14:11:22.036Z,32.20
2018-08-18T14:13:50.428Z,32.10
2018-08-18T14:16:18.818Z,32.90
2018-08-18T14:18:47.186Z,32.10
2018-08-18T14:21:15.533Z,32.30
2018-08-18T14:23:43.945Z,32.00
2018-08-18T14:26:12.291Z,31.70
2018-08-18T14:28:40.685Z,31.30
2018-08-18T14:31:09.018Z,32.10
2018-08-18T14:33:37.383Z,31.50
2018-08-18T14:36:11.948Z,31.50
2018-08-18T14:38:41.497Z,31.40
2018-08-18T14:41:09.983Z,31.10
2018-08-18T14:43:40.237Z,30.70
2018-08-18T14:46:13.781Z,30.30
2018-08-18T14:48:42.183Z,30.20
2018-08-18T14:51:10.527Z,30.00
2018-08-18T14:53:41.643Z,30.00
2018-08-18T14:56:09.970Z,30.00
2018-08-18T14:58:39.022Z,30.00
2018-08-18T15:01:11.068Z,29.80
2018-08-18T15:03:39.875Z,29.80
2018-08-18T15:06:08.424Z,30.00
2018-08-18T15:08:36.806Z,30.40
2018-08-18T15:11:05.147Z,29.90
2018-08-18T15:13:33.545Z,29.80
2018-08-18T15:16:01.907Z,29.80
2018-08-18T15:18:30.661Z,29.90
2018-08-18T15:20:59.017Z,30.00
2018-08-18T15:23:28.538Z,30.10
2018-08-18T15:25:57.029Z,29.90
2018-08-18T15:28:27.403Z,30.00
2018-08-18T15:30:55.926Z,30.10
2018-08-18T15:33:26.597Z,30.20
2018-08-18T15:35:55.324Z,30.40
2018-08-18T15:38:41.315Z,30.90
2018-08-18T15:41:10.267Z,30.80
2018-08-18T15:43:38.629Z,30.60
2018-08-18T15:46:06.998Z,30.90
2018-08-18T15:48:38.586Z,30.70
2018-08-18T15:51:06.968Z,30.30
2018-08-18T15:53:49.996Z,30.00
2018-08-18T15:56:19.244Z,30.00
2018-08-18T15:58:48.368Z,30.30
2018-08-18T16:01:17.229Z,30.60
2018-08-18T16:03:45.624Z,30.70
2018-08-18T16:06:14.300Z,31.30
2018-08-18T16:08:42.671Z,31.00
2018-08-18T16:11:11.015Z,31.10
2018-08-18T16:13:39.442Z,30.90
2018-08-18T16:16:07.767Z,30.70
2018-08-18T16:18:36.145Z,31.60
2018-08-18T16:21:12.388Z,31.20
2018-08-18T16:23:41.668Z,31.20
2018-08-18T16:26:10.693Z,31.40
2018-08-18T16:28:39.500Z,31.90
2018-08-18T16:31:08.347Z,32.10
2018-08-18T16:33:36.752Z,32.40
2018-08-18T16:36:05.345Z,32.70
2018-08-18T16:38:33.693Z,32.50
2018-08-18T16:41:02.063Z,32.70
2018-08-18T16:43:38.020Z,32.50
2018-08-18T16:46:21.995Z,32.40
2018-08-18T16:48:51.088Z,32.40
2018-08-18T16:51:19.852Z,32.40
2018-08-18T16:53:48.318Z,32.60
2018-08-18T16:56:22.948Z,32.60
2018-08-18T16:58:52.561Z,32.90
2018-08-18T17:01:21.276Z,33.10
2018-08-18T17:03:49.600Z,33.40
2018-08-18T17:06:17.952Z,33.70
2018-08-18T17:08:46.284Z,33.90
2018-08-18T17:11:14.643Z,34.00
2018-08-18T17:13:42.988Z,34.30
2018-08-18T17:16:11.352Z,34.70
2018-08-18T17:18:39.696Z,34.90
2018-08-18T17:21:08.524Z,35.00
2018-08-18T17:23:38.035Z,35.10
2018-08-18T17:26:06.619Z,35.30
2018-08-18T17:28:35.375Z,35.60
2018-08-18T17:31:04.817Z,35.60
2018-08-18T17:33:33.572Z,35.70
2018-08-18T17:36:01.989Z,36.00
2018-08-18T17:38:30.355Z,36.40
2018-08-18T17:40:58.749Z,36.40
2018-08-18T17:43:27.095Z,36.50
2018-08-18T17:45:58.678Z,36.40
2018-08-18T17:48:28.264Z,36.50
2018-08-18T17:50:56.888Z,36.30
2018-08-18T17:53:25.399Z,36.40
2018-08-18T17:56:03.018Z,36.50
2018-08-18T17:58:32.020Z,36.50
2018-08-18T18:01:01.052Z,36.60
2018-08-18T18:03:29.394Z,36.70
2018-08-18T18:05:57.938Z,36.80
2018-08-18T18:08:26.376Z,36.90
2018-08-18T18:10:54.756Z,37.20
2018-08-18T18:13:27.108Z,37.40
2018-08-18T18:15:56.321Z,37.50
2018-08-18T18:18:30.852Z,37.70
2018-08-18T18:20:59.258Z,37.70
2018-08-18T18:23:27.631Z,38.00
2018-08-18T18:25:56.013Z,38.10
2018-08-18T18:28:24.364Z,38.10
2018-08-18T18:30:53.472Z,38.30
2018-08-18T18:33:21.864Z,38.50
2018-08-18T18:35:50.909Z,38.90
2018-08-18T18:38:19.287Z,39.00
2018-08-18T18:40:47.640Z,39.20
2018-08-18T18:43:16.044Z,39.40
2018-08-18T18:45:44.509Z,39.50
2018-08-18T18:48:13.464Z,39.80
2018-08-18T18:50:44.816Z,40.00
2018-08-18T18:53:13.223Z,40.10
2018-08-18T18:55:51.676Z,40.30
2018-08-18T18:58:20.101Z,40.40
2018-08-18T19:01:00.241Z,40.60
2018-08-18T19:03:28.676Z,40.60
2018-08-18T19:05:57.040Z,40.50
2018-08-18T19:08:25.416Z,40.70
2018-08-18T19:10:53.790Z,41.00
2018-08-18T19:13:22.164Z,41.40
2018-08-18T19:15:50.568Z,41.90
2018-08-18T19:18:18.909Z,42.50
2018-08-18T19:20:47.345Z,43.00
2018-08-18T19:23:19.778Z,43.60
2018-08-18T19:25:51.795Z,44.10
2018-08-18T19:28:21.531Z,44.40
2018-08-18T19:30:49.980Z,44.80
2018-08-18T19:33:18.808Z,45.10
2018-08-18T19:35:49.204Z,44.90
2018-08-18T19:38:18.428Z,45.70
2018-08-18T19:40:48.140Z,46.10
2018-08-18T19:43:18.073Z,46.50
2018-08-18T19:45:46.612Z,46.80
2018-08-18T19:48:17.505Z,47.10
2018-08-18T19:50:52.428Z,47.30
2018-08-18T19:53:24.078Z,47.90
2018-08-18T19:55:53.444Z,47.50
2018-08-18T19:58:22.083Z,47.70
2018-08-18T20:00:50.517Z,47.90
2018-08-18T20:03:19.604Z,48.10
2018-08-18T20:05:47.976Z,48.50
2018-08-18T20:08:19.156Z,48.80
2018-08-18T20:10:52.840Z,49.00
2018-08-18T20:13:22.159Z,49.30
2018-08-18T20:15:51.834Z,49.50
2018-08-18T20:18:20.236Z,49.70
2018-08-18T20:20:48.580Z,50.00
2018-08-18T20:23:18.106Z,50.20
2018-08-18T20:25:47.238Z,50.50
2018-08-18T20:28:15.613Z,51.40
2018-08-18T20:30:43.967Z,51.00
2018-08-18T20:33:12.351Z,51.30
2018-08-18T20:35:40.993Z,52.00
2018-08-18T20:38:09.445Z,51.80
2018-08-18T20:40:37.919Z,52.20
2018-08-18T20:43:06.284Z,52.40
2018-08-18T20:45:40.072Z,52.70
2018-08-18T20:48:08.672Z,52.90
2018-08-18T20:50:37.100Z,53.10
2018-08-18T20:53:10.872Z,53.40
2018-08-18T20:55:39.639Z,53.70
2018-08-18T20:58:07.975Z,53.90
2018-08-18T21:00:36.365Z,54.60
2018-08-18T21:03:04.763Z,54.30
2018-08-18T21:05:33.132Z,54.50
2018-08-18T21:08:32.379Z,54.80
2018-08-18T21:11:00.874Z,55.00
2018-08-18T21:13:29.396Z,55.40
2018-08-18T21:15:57.739Z,55.60
2018-08-18T21:18:26.192Z,55.90
2018-08-18T21:20:54.569Z,56.00
2018-08-18T21:23:24.257Z,56.40
2018-08-18T21:25:53.572Z,56.50
2018-08-18T21:28:24.656Z,56.70
2018-08-18T21:30:53.046Z,56.70
2018-08-18T21:33:23.978Z,57.00
2018-08-18T21:35:52.861Z,57.20
2018-08-18T21:38:21.209Z,57.50
2018-08-18T21:40:49.724Z,57.60
2018-08-18T21:43:30.149Z,57.90
2018-08-18T21:45:58.516Z,58.00
2018-08-18T21:48:38.087Z,58.40
2018-08-18T21:51:06.460Z,58.70
2018-08-18T21:53:34.825Z,59.10
2018-08-18T21:56:03.349Z,59.30
2018-08-18T21:58:31.699Z,59.50
2018-08-18T22:01:05.525Z,59.70
2018-08-18T22:03:34.046Z,59.90
2018-08-18T22:06:02.369Z,60.20
2018-08-18T22:08:30.950Z,60.40
2018-08-18T22:10:59.440Z,60.70
2018-08-18T22:13:27.775Z,61.10
2018-08-18T22:15:58.997Z,61.40
2018-08-18T22:18:27.436Z,61.70
2018-08-18T22:20:55.820Z,62.70
2018-08-18T22:23:24.404Z,63.10
2018-08-18T22:25:52.881Z,62.50
2018-08-18T22:28:22.095Z,63.00
2018-08-18T22:30:51.533Z,63.10
2018-08-18T22:33:19.929Z,63.30
2018-08-18T22:35:53.642Z,63.40
2018-08-18T22:38:22.041Z,63.20
2018-08-18T22:40:50.432Z,63.30
2018-08-18T22:43:39.050Z,63.30
2018-08-18T22:46:07.432Z,63.40
2018-08-18T22:48:36.977Z,63.50
2018-08-18T22:51:05.577Z,63.70
2018-08-18T22:53:34.075Z,64.00
2018-08-18T22:56:03.770Z,64.20
2018-08-18T22:58:32.488Z,64.60
2018-08-18T23:01:01.163Z,64.90
2018-08-18T23:03:29.943Z,65.10
2018-08-18T23:05:59.351Z,65.20
2018-08-18T23:08:27.909Z,65.20
2018-08-18T23:10:56.624Z,65.40
2018-08-18T23:13:25.305Z,65.60
2018-08-18T23:15:53.919Z,65.70
2018-08-18T23:18:22.764Z,65.80
2018-08-18T23:20:51.234Z,66.10
2018-08-18T23:23:19.800Z,66.30
2018-08-18T23:25:48.440Z,66.30
2018-08-18T23:28:16.872Z,66.30
2018-08-18T23:30:45.217Z,66.40
2018-08-18T23:33:13.582Z,66.60
2018-08-18T23:35:41.919Z,67.10
2018-08-18T23:38:10.301Z,67.50
2018-08-18T23:40:38.637Z,67.60
2018-08-18T23:43:07.096Z,68.10
2018-08-18T23:45:40.790Z,68.10
2018-08-18T23:48:11.055Z,68.10
2018-08-18T23:50:40.532Z,68.20
2018-08-18T23:53:11.015Z,68.30
2018-08-18T23:55:48.396Z,68.40
2018-08-18T23:58:16.815Z,68.50
